Time;durP1;ratioP1;P1;durP2;ratioP2;P2;SDS_P1;SDS_P2;PMS_P1;PMS_P2;Temp;Humidity;BMP_temperature;BMP_pressure;BME280_temperature;BME280_humidity;BME280_pressure;Samples;Min_cycle;Max_cycle;Signal;HPM_P1;HPM_P2
2021/06/12 00:00:59;;;;;;;;;;;21.30;99.90;;;;;;4995503;28;19926;-76
2021/06/12 00:03:27;;;;;;;;;;;21.40;99.90;;;;;;4994806;28;20016;-77
2021/06/12 00:05:53;;;;;;;;;;;21.30;99.90;;;;;;4995938;28;20027;-76
2021/06/12 00:08:19;;;;;;;;;;;21.30;99.90;;;;;;4995569;28;20016;-76
2021/06/12 00:10:45;;;;;;;;;;;21.40;99.90;;;;;;4995782;28;20394;-77
2021/06/12 00:13:12;;;;;;;;;;;21.40;99.90;;;;;;4995313;28;20016;-77
2021/06/12 00:15:38;;;;;;;;;;;21.40;99.90;;;;;;4995637;28;20012;-79
2021/06/12 00:18:07;;;;;;;;;;;21.30;99.90;;;;;;4994993;28;20011;-78
2021/06/12 00:20:37;;;;;;;;;;;21.30;99.90;;;;;;4995620;28;20378;-78
2021/06/12 00:23:03;;;;;;;;;;;21.30;99.90;;;;;;4996564;28;19972;-78
2021/06/12 00:25:30;;;;;;;;;;;21.30;99.90;;;;;;4997204;28;20004;-78
2021/06/12 00:27:57;;;;;;;;;;;21.30;99.90;;;;;;4997128;28;20024;-79
2021/06/12 00:30:23;;;;;;;;;;;21.30;99.90;;;;;;4996826;28;20008;-78
2021/06/12 00:32:50;;;;;;;;;;;21.20;99.90;;;;;;4997282;28;19931;-79
2021/06/12 00:35:16;;;;;;;;;;;21.20;99.90;;;;;;4995486;28;20464;-77
2021/06/12 00:37:43;;;;;;;;;;;21.20;99.90;;;;;;4995279;28;20357;-77
2021/06/12 00:40:11;;;;;;;;;;;21.20;99.90;;;;;;4995033;28;19982;-77
2021/06/12 00:42:38;;;;;;;;;;;21.20;99.90;;;;;;4995533;28;20394;-77
2021/06/12 00:45:05;;;;;;;;;;;21.10;99.90;;;;;;4995053;28;19921;-77
2021/06/12 00:47:31;;;;;;;;;;;21.10;99.90;;;;;;4995117;28;19992;-77
2021/06/12 00:49:57;;;;;;;;;;;21.10;99.90;;;;;;4995108;28;19969;-78
2021/06/12 00:52:24;;;;;;;;;;;21.10;99.90;;;;;;4994523;28;20005;-77
2021/06/12 00:54:51;;;;;;;;;;;21.10;99.90;;;;;;4994209;28;20020;-77
2021/06/12 00:57:17;;;;;;;;;;;21.00;99.90;;;;;;4994765;28;20140;-77
2021/06/12 00:59:44;;;;;;;;;;;21.00;99.90;;;;;;4994517;28;20016;-77
2021/06/12 01:02:10;;;;;;;;;;;21.00;99.90;;;;;;4994515;28;19925;-78
2021/06/12 01:04:36;;;;;;;;;;;21.00;99.90;;;;;;5000238;28;19922;-77
2021/06/12 01:07:02;;;;;;;;;;;21.00;99.90;;;;;;5014001;28;20397;-77
2021/06/12 01:09:29;;;;;;;;;;;20.90;99.90;;;;;;5007903;28;20437;-77
2021/06/12 01:12:02;;;;;;;;;;;20.90;99.90;;;;;;5004382;28;20465;-75
2021/06/12 01:14:31;;;;;;;;;;;20.80;99.90;;;;;;5003720;28;19973;-76
2021/06/12 01:17:01;;;;;;;;;;;20.80;99.90;;;;;;5002243;28;19921;-77
2021/06/12 01:19:32;;;;;;;;;;;20.80;99.90;;;;;;5001844;28;19921;-77
2021/06/12 01:22:01;;;;;;;;;;;20.70;99.90;;;;;;4997257;28;20004;-76
2021/06/12 01:24:35;;;;;;;;;;;20.70;99.90;;;;;;4983621;28;19922;-77
2021/06/12 01:27:11;;;;;;;;;;;20.70;99.90;;;;;;4991173;28;20397;-77
2021/06/12 01:29:58;;;;;;;;;;;20.60;99.90;;;;;;4992982;28;19997;-77
2021/06/12 01:32:26;;;;;;;;;;;20.60;99.90;;;;;;4981908;28;19947;-77
2021/06/12 01:34:56;;;;;;;;;;;20.50;99.90;;;;;;4993026;28;19921;-76
2021/06/12 01:37:23;;;;;;;;;;;20.40;99.90;;;;;;4990526;28;20360;-76
2021/06/12 01:39:49;;;;;;;;;;;20.50;99.90;;;;;;4993071;28;19960;-77
2021/06/12 01:42:18;;;;;;;;;;;20.50;99.90;;;;;;4992956;28;19929;-77
2021/06/12 01:44:44;;;;;;;;;;;20.50;99.90;;;;;;4992595;28;20072;-78
2021/06/12 01:47:12;;;;;;;;;;;20.60;99.90;;;;;;4993006;28;19965;-77
2021/06/12 01:49:40;;;;;;;;;;;20.60;99.90;;;;;;4993428;28;20056;-77
2021/06/12 01:52:07;;;;;;;;;;;20.60;99.90;;;;;;4993501;28;20351;-78
2021/06/12 01:54:34;;;;;;;;;;;20.70;99.90;;;;;;4993622;28;20060;-78
2021/06/12 01:57:00;;;;;;;;;;;20.70;99.90;;;;;;4993653;28;20016;-75
2021/06/12 01:59:27;;;;;;;;;;;20.80;99.90;;;;;;4993551;28;20035;-76
2021/06/12 02:01:54;;;;;;;;;;;20.80;99.90;;;;;;4993468;28;19922;-75
2021/06/12 02:04:21;;;;;;;;;;;20.70;99.90;;;;;;4993105;28;19922;-76
2021/06/12 02:06:49;;;;;;;;;;;20.70;99.90;;;;;;4993554;28;20004;-75
2021/06/12 02:09:16;;;;;;;;;;;20.70;99.90;;;;;;4993088;28;20376;-77
2021/06/12 02:11:42;;;;;;;;;;;20.60;99.90;;;;;;4993312;28;19922;-76
2021/06/12 02:14:09;;;;;;;;;;;20.70;99.90;;;;;;4993024;28;20084;-76
2021/06/12 02:16:36;;;;;;;;;;;20.70;99.90;;;;;;4993087;28;20008;-76
2021/06/12 02:19:04;;;;;;;;;;;20.70;99.90;;;;;;4993058;28;19932;-76
2021/06/12 02:21:31;;;;;;;;;;;20.80;99.90;;;;;;4993181;28;19964;-77
2021/06/12 02:23:59;;;;;;;;;;;20.90;99.90;;;;;;4992629;28;20360;-76
2021/06/12 02:26:27;;;;;;;;;;;20.90;99.90;;;;;;4993016;28;20394;-76
2021/06/12 02:28:55;;;;;;;;;;;20.90;99.90;;;;;;4992998;28;20101;-76
2021/06/12 02:31:23;;;;;;;;;;;21.00;99.90;;;;;;4992439;28;20421;-77
2021/06/12 02:33:50;;;;;;;;;;;20.90;99.90;;;;;;4992578;28;19965;-77
2021/06/12 02:36:16;;;;;;;;;;;20.90;99.90;;;;;;4992599;28;20358;-77
2021/06/12 02:38:42;;;;;;;;;;;21.00;99.90;;;;;;4992621;28;19921;-77
2021/06/12 02:41:10;;;;;;;;;;;21.00;99.90;;;;;;4992313;28;20409;-77
2021/06/12 02:43:36;;;;;;;;;;;21.00;99.90;;;;;;4992223;28;20557;-77
2021/06/12 02:46:03;;;;;;;;;;;21.00;99.90;;;;;;4992363;28;20532;-76
2021/06/12 02:48:30;;;;;;;;;;;21.00;99.90;;;;;;4992774;28;20329;-76
2021/06/12 02:50:58;;;;;;;;;;;21.00;99.90;;;;;;4992364;28;20012;-76
2021/06/12 02:53:25;;;;;;;;;;;21.00;99.90;;;;;;4992126;28;20446;-76
2021/06/12 02:55:53;;;;;;;;;;;21.00;99.90;;;;;;4992298;28;20056;-76
2021/06/12 02:58:22;;;;;;;;;;;21.00;99.90;;;;;;4992367;28;19926;-76
2021/06/12 03:00:49;;;;;;;;;;;21.00;99.90;;;;;;4992486;28;20028;-75
2021/06/12 03:03:16;;;;;;;;;;;21.00;99.90;;;;;;4992013;28;20005;-76
2021/06/12 03:05:45;;;;;;;;;;;21.00;99.90;;;;;;4992347;28;19972;-76
2021/06/12 03:08:14;;;;;;;;;;;21.00;99.90;;;;;;4992302;28;19921;-76
2021/06/12 03:10:41;;;;;;;;;;;20.90;99.90;;;;;;4992131;28;19922;-76
2021/06/12 03:13:08;;;;;;;;;;;20.90;99.90;;;;;;4991733;28;19968;-77
2021/06/12 03:15:36;;;;;;;;;;;20.90;99.90;;;;;;4991792;28;19980;-76
2021/06/12 03:18:03;;;;;;;;;;;20.90;99.90;;;;;;4992267;28;19969;-76
2021/06/12 03:20:30;;;;;;;;;;;20.90;99.90;;;;;;4991941;28;19968;-75
2021/06/12 03:23:01;;;;;;;;;;;20.90;99.90;;;;;;4991621;28;20037;-77
2021/06/12 03:25:27;;;;;;;;;;;20.80;99.90;;;;;;4991800;28;20294;-75
2021/06/12 03:27:53;;;;;;;;;;;20.70;99.90;;;;;;4992050;28;20047;-76
2021/06/12 03:30:20;;;;;;;;;;;20.70;99.90;;;;;;4991939;28;19928;-76
2021/06/12 03:32:47;;;;;;;;;;;20.70;99.90;;;;;;4992062;28;20438;-77
2021/06/12 03:35:14;;;;;;;;;;;20.60;99.90;;;;;;4991881;28;20303;-77
2021/06/12 03:37:40;;;;;;;;;;;20.60;99.90;;;;;;4991908;28;20346;-77
2021/06/12 03:40:07;;;;;;;;;;;20.60;99.90;;;;;;4992050;28;20017;-76
2021/06/12 03:42:34;;;;;;;;;;;20.70;99.90;;;;;;4992004;28;20024;-76
2021/06/12 03:45:01;;;;;;;;;;;20.60;99.90;;;;;;4991475;28;20013;-77
2021/06/12 03:47:28;;;;;;;;;;;20.70;99.90;;;;;;4992044;28;20016;-76
2021/06/12 03:49:55;;;;;;;;;;;20.70;99.90;;;;;;4992050;28;19928;-76
2021/06/12 03:52:23;;;;;;;;;;;20.60;99.90;;;;;;4991954;28;19922;-76
2021/06/12 03:54:50;;;;;;;;;;;20.60;99.90;;;;;;4995313;28;20016;-76
2021/06/12 03:57:17;;;;;;;;;;;20.60;99.90;;;;;;4995902;28;19921;-77
2021/06/12 03:59:43;;;;;;;;;;;20.60;99.90;;;;;;4995668;28;20008;-77
2021/06/12 04:02:10;;;;;;;;;;;20.50;99.90;;;;;;4995844;28;19922;-77
2021/06/12 04:04:36;;;;;;;;;;;20.50;99.90;;;;;;5015733;23;19957;-76
2021/06/12 04:07:05;;;;;;;;;;;20.60;99.90;;;;;;5004267;28;19957;-77
2021/06/12 04:09:31;;;;;;;;;;;20.60;99.90;;;;;;5007366;28;19933;-78
2021/06/12 04:11:57;;;;;;;;;;;20.50;99.90;;;;;;5015660;28;19921;-78
2021/06/12 04:14:23;;;;;;;;;;;20.60;99.90;;;;;;5016509;28;19922;-78
2021/06/12 04:16:49;;;;;;;;;;;20.60;99.90;;;;;;5004158;28;20007;-78
2021/06/12 04:19:16;;;;;;;;;;;20.60;99.90;;;;;;4999283;28;19957;-79
2021/06/12 04:21:42;;;;;;;;;;;20.60;99.90;;;;;;4996190;28;20016;-77
2021/06/12 04:24:09;;;;;;;;;;;20.70;99.90;;;;;;4996113;28;19921;-77
2021/06/12 04:26:36;;;;;;;;;;;20.80;99.90;;;;;;4996283;28;20025;-78
2021/06/12 04:29:02;;;;;;;;;;;20.80;99.90;;;;;;4996280;28;19926;-77
2021/06/12 04:31:28;;;;;;;;;;;20.80;99.90;;;;;;4996171;28;20020;-77
2021/06/12 04:33:54;;;;;;;;;;;20.70;99.90;;;;;;4995511;28;19944;-77
2021/06/12 04:36:20;;;;;;;;;;;20.70;99.90;;;;;;4995684;28;20016;-77
2021/06/12 04:38:46;;;;;;;;;;;20.60;99.90;;;;;;4996154;28;19964;-78
2021/06/12 04:41:14;;;;;;;;;;;20.50;99.90;;;;;;4995724;28;19922;-78
2021/06/12 04:43:40;;;;;;;;;;;20.60;99.90;;;;;;4996272;28;20020;-78
2021/06/12 04:46:06;;;;;;;;;;;20.60;99.90;;;;;;4997286;28;20013;-77
2021/06/12 04:48:32;;;;;;;;;;;20.70;99.90;;;;;;4996819;28;19971;-77
2021/06/12 04:50:59;;;;;;;;;;;20.90;99.90;;;;;;4997215;28;19922;-77
2021/06/12 04:53:25;;;;;;;;;;;21.10;99.90;;;;;;4997812;28;20012;-78
2021/06/12 04:55:51;;;;;;;;;;;21.20;99.90;;;;;;4998133;28;20016;-78
2021/06/12 04:58:18;;;;;;;;;;;21.30;99.90;;;;;;4998140;28;20007;-78
2021/06/12 05:00:46;;;;;;;;;;;21.30;99.90;;;;;;4997414;28;19941;-78
2021/06/12 05:03:13;;;;;;;;;;;21.40;99.90;;;;;;4996483;28;19921;-78
2021/06/12 05:05:39;;;;;;;;;;;21.50;99.90;;;;;;5000805;28;19922;-79
2021/06/12 05:08:05;;;;;;;;;;;21.70;99.90;;;;;;5001825;28;19989;-77
2021/06/12 05:10:31;;;;;;;;;;;22.00;99.90;;;;;;5002011;28;19957;-78
2021/06/12 05:12:57;;;;;;;;;;;22.10;99.90;;;;;;5000727;28;20019;-79
2021/06/12 05:15:28;;;;;;;;;;;22.20;99.90;;;;;;5001909;28;19921;-79
2021/06/12 05:17:56;;;;;;;;;;;22.50;99.90;;;;;;4998885;28;19948;-79
2021/06/12 05:20:24;;;;;;;;;;;22.80;99.90;;;;;;4995101;28;19922;-78
2021/06/12 05:22:50;;;;;;;;;;;23.00;99.90;;;;;;4995268;28;20374;-78
2021/06/12 05:25:17;;;;;;;;;;;23.10;99.90;;;;;;4995122;28;19922;-78
2021/06/12 05:27:43;;;;;;;;;;;23.10;99.90;;;;;;4994730;28;19984;-78
2021/06/12 05:30:10;;;;;;;;;;;23.10;99.90;;;;;;4995733;28;20021;-78
2021/06/12 05:32:38;;;;;;;;;;;23.00;99.90;;;;;;4997286;28;19931;-78
2021/06/12 05:35:06;;;;;;;;;;;23.00;99.90;;;;;;4998422;28;19972;-78
2021/06/12 05:37:33;;;;;;;;;;;22.80;99.90;;;;;;4999830;28;19922;-80
2021/06/12 05:40:00;;;;;;;;;;;22.80;99.90;;;;;;4999561;28;19945;-79
2021/06/12 05:42:26;;;;;;;;;;;22.70;99.90;;;;;;4998872;28;20004;-78
2021/06/12 05:44:52;;;;;;;;;;;22.60;99.90;;;;;;4998730;28;20023;-79
2021/06/12 05:47:18;;;;;;;;;;;22.40;99.90;;;;;;4997963;28;19980;-78
2021/06/12 05:49:46;;;;;;;;;;;22.30;99.90;;;;;;4998674;28;19985;-78
2021/06/12 05:52:12;;;;;;;;;;;22.50;99.90;;;;;;4997992;28;19957;-79
2021/06/12 05:54:38;;;;;;;;;;;22.70;99.90;;;;;;4997209;28;19972;-79
2021/06/12 05:57:05;;;;;;;;;;;23.20;99.90;;;;;;4998018;28;19928;-79
2021/06/12 05:59:31;;;;;;;;;;;23.40;99.90;;;;;;4998514;28;19922;-79
2021/06/12 06:01:57;;;;;;;;;;;23.90;99.90;;;;;;5000405;28;19969;-79
2021/06/12 06:04:23;;;;;;;;;;;24.20;99.90;;;;;;5001894;28;19986;-79
2021/06/12 06:06:51;;;;;;;;;;;24.50;99.90;;;;;;4997288;28;20006;-82
2021/06/12 06:09:17;;;;;;;;;;;24.90;99.90;;;;;;4997379;28;19932;-81
2021/06/12 06:11:44;;;;;;;;;;;25.30;99.90;;;;;;4998802;28;19961;-82
2021/06/12 06:14:10;;;;;;;;;;;25.60;99.90;;;;;;5001112;28;20433;-81
2021/06/12 06:16:36;;;;;;;;;;;26.00;99.90;;;;;;5004082;28;19941;-80
2021/06/12 06:19:02;;;;;;;;;;;26.00;99.90;;;;;;5005450;28;19921;-80
2021/06/12 06:21:28;;;;;;;;;;;25.70;99.90;;;;;;5008603;28;19922;-79
2021/06/12 06:23:56;;;;;;;;;;;25.40;99.90;;;;;;4999887;28;19976;-80
2021/06/12 06:26:23;;;;;;;;;;;25.40;99.90;;;;;;4999540;28;19928;-80
2021/06/12 06:28:49;;;;;;;;;;;25.10;99.90;;;;;;4998126;28;19922;-80
2021/06/12 06:31:16;;;;;;;;;;;24.60;99.90;;;;;;4997933;28;19922;-81
2021/06/12 06:33:42;;;;;;;;;;;24.30;99.90;;;;;;5000194;28;19928;-82
2021/06/12 06:36:09;;;;;;;;;;;24.20;99.90;;;;;;4998054;28;19922;-81
2021/06/12 06:38:35;;;;;;;;;;;23.90;99.90;;;;;;4998030;28;20354;-82
2021/06/12 06:41:02;;;;;;;;;;;23.70;99.90;;;;;;4999340;28;20309;-84
2021/06/12 06:43:29;;;;;;;;;;;23.40;99.90;;;;;;5000130;28;19954;-82
2021/06/12 06:45:55;;;;;;;;;;;23.20;99.90;;;;;;5001152;28;19928;-83
2021/06/12 06:48:21;;;;;;;;;;;23.00;99.90;;;;;;4999068;28;19929;-83
2021/06/12 06:50:48;;;;;;;;;;;22.80;99.90;;;;;;4999350;28;19932;-80
2021/06/12 06:53:15;;;;;;;;;;;22.90;99.90;;;;;;5000562;28;19922;-83
2021/06/12 06:55:41;;;;;;;;;;;23.30;99.90;;;;;;5000581;28;19921;-85
2021/06/12 06:58:09;;;;;;;;;;;23.80;99.90;;;;;;5000541;28;19929;-84
2021/06/12 07:00:35;;;;;;;;;;;24.00;99.90;;;;;;4999032;28;19921;-79
2021/06/12 07:03:02;;;;;;;;;;;24.20;99.90;;;;;;4998716;28;19929;-84
2021/06/12 07:05:28;;;;;;;;;;;23.90;99.90;;;;;;4998716;28;19932;-84
2021/06/12 07:07:54;;;;;;;;;;;24.10;99.90;;;;;;4998507;28;19922;-85
2021/06/12 07:10:21;;;;;;;;;;;24.40;99.90;;;;;;4999318;28;19922;-83
2021/06/12 07:12:48;;;;;;;;;;;24.50;99.90;;;;;;4998017;28;19929;-84
2021/06/12 07:15:16;;;;;;;;;;;24.70;99.90;;;;;;4997159;28;19922;-85
2021/06/12 07:17:42;;;;;;;;;;;24.80;99.90;;;;;;4997750;28;20339;-82
2021/06/12 07:20:09;;;;;;;;;;;24.90;99.90;;;;;;4997783;28;19922;-82
2021/06/12 07:22:35;;;;;;;;;;;24.60;99.90;;;;;;4998816;28;20310;-82
2021/06/12 07:25:02;;;;;;;;;;;24.60;99.90;;;;;;4996743;28;20398;-79
2021/06/12 07:27:28;;;;;;;;;;;24.50;99.90;;;;;;4997128;28;19945;-82
2021/06/12 07:29:55;;;;;;;;;;;24.30;99.90;;;;;;5001305;28;19945;-79
2021/06/12 07:32:22;;;;;;;;;;;24.10;99.90;;;;;;5001071;28;19928;-81
2021/06/12 07:34:49;;;;;;;;;;;23.80;99.90;;;;;;4999041;28;19922;-79
2021/06/12 07:37:15;;;;;;;;;;;23.30;99.90;;;;;;5001371;28;19921;-79
2021/06/12 07:39:41;;;;;;;;;;;23.00;99.90;;;;;;5000855;28;19921;-79
2021/06/12 07:42:08;;;;;;;;;;;22.80;99.90;;;;;;5001272;28;19941;-80
2021/06/12 07:44:34;;;;;;;;;;;22.40;99.90;;;;;;5000253;28;19922;-80
2021/06/12 07:47:00;;;;;;;;;;;22.10;99.90;;;;;;5001959;28;19930;-83
2021/06/12 07:49:28;;;;;;;;;;;21.80;99.90;;;;;;4998745;28;19928;-81
2021/06/12 07:51:54;;;;;;;;;;;21.70;99.90;;;;;;5001388;28;19929;-82
2021/06/12 07:54:20;;;;;;;;;;;21.70;99.90;;;;;;5000495;28;20298;-80
2021/06/12 07:56:47;;;;;;;;;;;21.90;99.90;;;;;;4998316;28;19929;-81
2021/06/12 07:59:13;;;;;;;;;;;22.30;99.90;;;;;;5000674;28;19922;-79
2021/06/12 08:01:39;;;;;;;;;;;22.60;99.90;;;;;;4999653;28;19948;-78
2021/06/12 08:04:06;;;;;;;;;;;22.70;99.90;;;;;;4999249;28;19928;-79
2021/06/12 08:06:33;;;;;;;;;;;22.70;99.90;;;;;;4999788;28;19922;-80
2021/06/12 08:09:00;;;;;;;;;;;22.40;99.90;;;;;;4999424;28;19922;-80
2021/06/12 08:11:26;;;;;;;;;;;22.10;99.90;;;;;;4999722;28;20405;-78
2021/06/12 08:13:52;;;;;;;;;;;22.10;99.90;;;;;;5001908;28;19922;-78
2021/06/12 08:16:19;;;;;;;;;;;22.00;99.90;;;;;;4998700;28;19928;-80
2021/06/12 08:18:45;;;;;;;;;;;22.10;99.90;;;;;;5000093;28;19921;-80
2021/06/12 08:21:11;;;;;;;;;;;22.10;99.90;;;;;;4999823;28;19948;-78
2021/06/12 08:23:39;;;;;;;;;;;22.20;99.90;;;;;;4999283;28;19932;-80
2021/06/12 08:26:05;;;;;;;;;;;22.30;99.90;;;;;;4999764;28;19929;-80
2021/06/12 08:28:32;;;;;;;;;;;22.30;99.90;;;;;;4998482;28;19922;-78
2021/06/12 08:30:58;;;;;;;;;;;22.30;99.90;;;;;;4998323;28;19921;-78
2021/06/12 08:33:24;;;;;;;;;;;22.30;99.90;;;;;;4995380;28;19937;-79
2021/06/12 08:35:51;;;;;;;;;;;22.20;99.90;;;;;;4996781;28;19972;-82
2021/06/12 08:38:18;;;;;;;;;;;22.10;99.90;;;;;;4997550;28;19922;-80
2021/06/12 08:40:47;;;;;;;;;;;22.00;99.90;;;;;;5001513;28;20405;-80
2021/06/12 08:43:18;;;;;;;;;;;21.90;99.90;;;;;;5001124;28;19922;-78
2021/06/12 08:45:44;;;;;;;;;;;22.00;99.90;;;;;;4994409;28;19926;-77
2021/06/12 08:48:11;;;;;;;;;;;21.90;99.90;;;;;;5000644;28;19985;-78
2021/06/12 08:50:38;;;;;;;;;;;21.70;99.90;;;;;;4999314;28;19925;-78
2021/06/12 08:53:04;;;;;;;;;;;21.60;99.90;;;;;;4998363;28;19925;-79
2021/06/12 08:55:31;;;;;;;;;;;21.40;99.90;;;;;;4999998;28;19922;-75
2021/06/12 08:58:00;;;;;;;;;;;21.30;99.90;;;;;;5001602;28;20373;-80
2021/06/12 09:00:26;;;;;;;;;;;21.10;99.90;;;;;;5000539;28;19976;-77
2021/06/12 09:03:12;;;;;;;;;;;21.00;99.90;;;;;;4999945;28;19926;-78
2021/06/12 09:05:45;;;;;;;;;;;20.80;99.90;;;;;;5003283;28;19948;-81
2021/06/12 09:08:12;;;;;;;;;;;20.70;99.90;;;;;;5003155;28;19929;-82
2021/06/12 09:10:59;;;;;;;;;;;20.60;99.90;;;;;;5000555;28;19926;-81
2021/06/12 09:13:37;;;;;;;;;;;20.60;99.90;;;;;;4997373;28;19957;-81
2021/06/12 09:16:04;;;;;;;;;;;20.50;99.90;;;;;;5004126;28;19952;-81
2021/06/12 09:18:35;;;;;;;;;;;20.50;99.90;;;;;;5005720;28;20351;-81
2021/06/12 09:21:01;;;;;;;;;;;20.50;99.90;;;;;;5004565;28;20181;-82
2021/06/12 09:23:36;;;;;;;;;;;20.50;99.90;;;;;;5003747;28;20025;-82
2021/06/12 09:26:03;;;;;;;;;;;20.40;99.90;;;;;;5004950;28;19941;-81
2021/06/12 09:28:44;;;;;;;;;;;20.40;99.90;;;;;;5003333;28;20329;-81
2021/06/12 09:31:18;;;;;;;;;;;20.50;99.90;;;;;;5001578;28;20374;-80
2021/06/12 09:33:45;;;;;;;;;;;20.70;99.90;;;;;;5001387;28;19932;-81
2021/06/12 09:36:11;;;;;;;;;;;20.80;99.90;;;;;;5002791;28;20341;-81
2021/06/12 09:38:38;;;;;;;;;;;20.90;99.90;;;;;;5001816;28;19926;-81
2021/06/12 09:41:19;;;;;;;;;;;21.00;99.90;;;;;;5002891;28;20325;-79
2021/06/12 09:43:46;;;;;;;;;;;21.20;99.90;;;;;;5002933;28;20317;-79
2021/06/12 09:46:27;;;;;;;;;;;21.40;99.90;;;;;;5002337;28;19932;-79
2021/06/12 09:48:55;;;;;;;;;;;21.80;99.90;;;;;;5003140;28;19928;-79
2021/06/12 09:51:21;;;;;;;;;;;22.10;99.90;;;;;;5003480;28;20394;-80
2021/06/12 09:53:48;;;;;;;;;;;22.30;99.90;;;;;;5004864;28;19925;-81
2021/06/12 09:56:14;;;;;;;;;;;22.70;99.90;;;;;;5003640;28;20290;-80
2021/06/12 09:58:40;;;;;;;;;;;22.90;99.90;;;;;;5002330;28;20337;-80
2021/06/12 10:01:07;;;;;;;;;;;22.80;99.90;;;;;;5001340;28;19921;-82
2021/06/12 10:03:33;;;;;;;;;;;22.60;99.90;;;;;;5058597;23;19945;-76
2021/06/12 10:06:11;;;;;;;;;;;22.60;99.90;;;;;;5007163;28;19925;-78
2021/06/12 10:08:37;;;;;;;;;;;22.60;99.90;;;;;;5015451;28;19925;-77
2021/06/12 10:11:03;;;;;;;;;;;22.60;99.90;;;;;;5015161;28;20309;-78
2021/06/12 10:13:30;;;;;;;;;;;22.60;99.90;;;;;;5012973;28;19925;-79
2021/06/12 10:15:57;;;;;;;;;;;22.50;99.90;;;;;;4996243;28;19968;-78
2021/06/12 10:18:25;;;;;;;;;;;22.60;99.90;;;;;;4996059;28;19922;-77
2021/06/12 10:20:51;;;;;;;;;;;22.70;99.90;;;;;;4994988;28;20020;-78
2021/06/12 10:23:19;;;;;;;;;;;22.60;99.90;;;;;;4994018;28;19933;-77
2021/06/12 10:25:45;;;;;;;;;;;22.60;99.90;;;;;;4994351;28;19929;-77
2021/06/12 10:28:12;;;;;;;;;;;22.70;99.90;;;;;;4995123;28;19941;-77
2021/06/12 10:30:39;;;;;;;;;;;22.70;99.90;;;;;;4992951;28;19993;-77
2021/06/12 10:33:06;;;;;;;;;;;22.90;99.90;;;;;;4992904;28;20306;-78
2021/06/12 10:35:33;;;;;;;;;;;23.10;99.90;;;;;;4993141;28;20012;-78
2021/06/12 10:38:00;;;;;;;;;;;23.20;99.90;;;;;;4993860;28;19922;-78
2021/06/12 10:40:41;;;;;;;;;;;23.30;99.90;;;;;;4993420;28;19933;-77
2021/06/12 10:43:12;;;;;;;;;;;23.40;99.90;;;;;;4992319;28;19969;-78
2021/06/12 10:45:38;;;;;;;;;;;23.30;99.90;;;;;;4992709;28;19967;-78
2021/06/12 10:48:05;;;;;;;;;;;23.10;99.90;;;;;;4993135;28;19922;-77
2021/06/12 10:50:32;;;;;;;;;;;23.00;99.90;;;;;;4992321;28;20008;-77
2021/06/12 10:53:33;;;;;;;;;;;22.90;99.90;;;;;;4994155;28;19929;-81
2021/06/12 10:56:01;;;;;;;;;;;22.70;99.90;;;;;;4931027;29;19938;-78
2021/06/12 10:58:46;;;;;;;;;;;22.80;99.90;;;;;;4980567;28;20012;-78
2021/06/12 11:01:14;;;;;;;;;;;22.70;99.90;;;;;;4992689;28;19957;-79
2021/06/12 11:03:48;;;;;;;;;;;22.80;99.90;;;;;;4990833;28;19922;-77
2021/06/12 11:06:34;;;;;;;;;;;22.80;99.90;;;;;;4993205;28;19925;-78
2021/06/12 11:09:20;;;;;;;;;;;22.50;99.90;;;;;;4993468;28;19957;-78
2021/06/12 11:11:48;;;;;;;;;;;22.20;99.90;;;;;;4993252;28;19944;-79
2021/06/12 11:14:24;;;;;;;;;;;22.10;99.90;;;;;;4993431;28;19922;-78
2021/06/12 11:17:05;;;;;;;;;;;22.10;99.90;;;;;;4992926;28;19921;-77
2021/06/12 11:19:32;;;;;;;;;;;22.40;99.90;;;;;;4991384;28;20206;-78
2021/06/12 11:22:16;;;;;;;;;;;22.40;99.90;;;;;;4991937;28;20428;-79
2021/06/12 11:24:44;;;;;;;;;;;22.50;99.90;;;;;;4991652;28;20297;-77
2021/06/12 11:27:23;;;;;;;;;;;22.60;99.90;;;;;;4992815;28;19921;-77
2021/06/12 11:30:08;;;;;;;;;;;22.80;99.90;;;;;;4994142;28;19969;-79
2021/06/12 11:32:34;;;;;;;;;;;23.00;99.90;;;;;;4993443;28;19969;-79
2021/06/12 11:35:00;;;;;;;;;;;23.00;99.90;;;;;;4994445;28;20012;-78
2021/06/12 11:37:27;;;;;;;;;;;23.20;99.90;;;;;;4993447;28;20357;-78
2021/06/12 11:40:04;;;;;;;;;;;23.30;99.90;;;;;;4992320;28;19928;-77
2021/06/12 11:42:42;;;;;;;;;;;23.40;99.90;;;;;;4991514;28;19922;-78
2021/06/12 11:45:19;;;;;;;;;;;23.40;99.90;;;;;;4991603;28;19926;-78
2021/06/12 11:47:45;;;;;;;;;;;23.50;99.90;;;;;;4991925;28;19926;-78
2021/06/12 11:50:12;;;;;;;;;;;23.60;99.90;;;;;;4992272;28;20381;-78
2021/06/12 11:52:40;;;;;;;;;;;23.80;99.90;;;;;;4992011;28;19944;-78
2021/06/12 11:55:09;;;;;;;;;;;23.80;99.90;;;;;;4991362;28;20408;-77
2021/06/12 11:57:39;;;;;;;;;;;23.80;99.90;;;;;;4991913;28;20016;-78
2021/06/12 12:00:24;;;;;;;;;;;23.60;99.90;;;;;;4991520;28;20307;-78
2021/06/12 12:02:56;;;;;;;;;;;23.70;99.90;;;;;;4991824;28;19928;-78
2021/06/12 12:05:25;;;;;;;;;;;23.80;99.90;;;;;;4992262;28;20004;-81
2021/06/12 12:07:52;;;;;;;;;;;23.90;99.90;;;;;;4993579;28;19925;-78
2021/06/12 12:10:23;;;;;;;;;;;24.10;99.90;;;;;;4994269;28;20091;-78
2021/06/12 12:12:49;;;;;;;;;;;24.10;99.90;;;;;;4993764;28;20008;-78
2021/06/12 12:15:32;;;;;;;;;;;24.00;99.90;;;;;;4996886;28;19988;-79
2021/06/12 12:18:01;;;;;;;;;;;24.00;99.90;;;;;;4998128;28;19996;-78
2021/06/12 12:20:27;;;;;;;;;;;24.20;99.90;;;;;;4998808;28;19980;-78
2021/06/12 12:22:54;;;;;;;;;;;24.40;99.90;;;;;;4998058;28;20028;-78
2021/06/12 12:25:25;;;;;;;;;;;24.60;99.90;;;;;;4997411;28;19929;-79
2021/06/12 12:28:00;;;;;;;;;;;24.70;99.90;;;;;;4998310;28;19921;-79
2021/06/12 12:30:28;;;;;;;;;;;24.90;99.90;;;;;;4997512;28;19922;-78
2021/06/12 12:32:54;;;;;;;;;;;25.10;99.90;;;;;;4997005;28;20482;-78
2021/06/12 12:35:21;;;;;;;;;;;24.80;99.90;;;;;;4996890;28;20232;-78
2021/06/12 12:37:47;;;;;;;;;;;24.50;99.90;;;;;;4996679;28;19922;-78
2021/06/12 12:40:17;;;;;;;;;;;24.00;99.90;;;;;;4996724;28;20274;-77
2021/06/12 12:42:43;;;;;;;;;;;23.60;99.90;;;;;;4996909;28;20350;-79
2021/06/12 12:45:10;;;;;;;;;;;23.30;99.90;;;;;;4996461;28;20091;-78
2021/06/12 12:47:37;;;;;;;;;;;23.00;99.90;;;;;;4997486;28;20267;-78
2021/06/12 12:50:04;;;;;;;;;;;22.90;99.90;;;;;;4996754;28;19921;-79
2021/06/12 12:52:30;;;;;;;;;;;22.80;99.90;;;;;;4994795;28;20016;-77
2021/06/12 12:54:58;;;;;;;;;;;22.80;99.90;;;;;;4995137;28;20012;-76
2021/06/12 12:57:24;;;;;;;;;;;22.80;99.90;;;;;;4997749;28;19957;-78
2021/06/12 12:59:50;;;;;;;;;;;22.90;99.90;;;;;;4997077;28;19960;-78
2021/06/12 13:02:17;;;;;;;;;;;23.00;99.90;;;;;;4997087;28;20035;-79
2021/06/12 13:04:45;;;;;;;;;;;23.20;99.90;;;;;;4997028;28;19929;-79
2021/06/12 13:07:12;;;;;;;;;;;23.20;99.90;;;;;;4998940;28;20370;-79
2021/06/12 13:09:39;;;;;;;;;;;23.30;99.90;;;;;;4997313;28;20113;-78
2021/06/12 13:12:08;;;;;;;;;;;23.40;99.90;;;;;;4997976;28;19933;-78
2021/06/12 13:14:35;;;;;;;;;;;23.40;99.90;;;;;;4996622;28;19921;-78
2021/06/12 13:17:04;;;;;;;;;;;23.50;99.90;;;;;;4997313;28;19969;-78
2021/06/12 13:19:35;;;;;;;;;;;23.40;99.90;;;;;;4996032;28;19922;-78
2021/06/12 13:22:03;;;;;;;;;;;23.50;99.90;;;;;;4997228;28;19977;-79
2021/06/12 13:24:29;;;;;;;;;;;23.60;99.90;;;;;;4997003;28;19921;-78
2021/06/12 13:26:55;;;;;;;;;;;23.90;99.90;;;;;;4995847;28;19968;-79
2021/06/12 13:29:22;;;;;;;;;;;24.00;99.90;;;;;;4994290;28;20441;-77
2021/06/12 13:31:49;;;;;;;;;;;24.30;99.90;;;;;;4994970;28;20079;-78
2021/06/12 13:34:25;;;;;;;;;;;24.50;99.90;;;;;;4994488;28;19925;-78
2021/06/12 13:36:52;;;;;;;;;;;24.40;99.90;;;;;;4994130;28;19921;-79
2021/06/12 13:39:30;;;;;;;;;;;24.20;99.90;;;;;;4994048;28;19977;-78
2021/06/12 13:42:09;;;;;;;;;;;24.20;99.90;;;;;;4994109;28;20414;-79
2021/06/12 13:44:36;;;;;;;;;;;24.00;99.90;;;;;;4995164;28;19961;-77
2021/06/12 13:47:02;;;;;;;;;;;24.00;99.90;;;;;;4994438;28;19926;-79
2021/06/12 13:49:28;;;;;;;;;;;24.10;99.90;;;;;;4995097;28;20351;-77
2021/06/12 13:51:55;;;;;;;;;;;24.30;99.90;;;;;;4994895;28;19922;-80
2021/06/12 13:54:22;;;;;;;;;;;24.50;99.90;;;;;;4994702;28;20016;-79
2021/06/12 13:56:50;;;;;;;;;;;24.70;99.90;;;;;;4994937;28;19929;-78
2021/06/12 13:59:19;;;;;;;;;;;24.80;99.90;;;;;;4995066;28;20025;-78
2021/06/12 14:01:45;;;;;;;;;;;24.70;99.90;;;;;;4994852;28;19922;-78
2021/06/12 14:04:11;;;;;;;;;;;24.60;99.90;;;;;;4995126;28;20012;-78
2021/06/12 14:06:38;;;;;;;;;;;24.60;99.90;;;;;;4989338;28;20012;-77
2021/06/12 14:09:04;;;;;;;;;;;24.60;99.90;;;;;;4993651;28;20107;-78
2021/06/12 14:11:30;;;;;;;;;;;24.70;99.90;;;;;;4996106;28;20385;-78
2021/06/12 14:13:58;;;;;;;;;;;24.70;99.90;;;;;;4994467;28;20011;-79
2021/06/12 14:16:24;;;;;;;;;;;24.70;99.90;;;;;;4994724;28;19968;-78
2021/06/12 14:18:51;;;;;;;;;;;24.70;99.90;;;;;;4994712;28;19954;-78
2021/06/12 14:21:17;;;;;;;;;;;24.70;99.90;;;;;;4995057;28;20405;-78